Terminal Aerodrome Forecast
Issued by NWS

Home | Current Version | Previous Version | Text Only | Print | Product List | Glossary On
Versions: 1 2 3 4 5 6 7 8 9 10 11 12 13 14 15 16 17
000
FTUS45 KABQ 300531
TAFTCC
TAF
KTCC 300531Z 3006/3106 06008KT P6SM SCT110
     FM301000 12006KT P6SM BKN020
     FM301500 21010KT P6SM SKC
     FM301900 23015G25KT P6SM VCTS SCT060CB BKN120
     FM310200 15013KT P6SM FEW060 SCT120=

USA.gov is the U.S. government's official web portal to all federal, state and local government web resources and services.